sensor_id;sensor_type;location;lat;lon;timestamp;P1;durP1;ratioP1;P2;durP2;ratioP2
4186;SDS011;2107;52.306;10.484;2023-01-01T00:01:25;0.30;;;0.30;;
4186;SDS011;2107;52.306;10.484;2023-01-01T00:03:53;0.30;;;0.30;;
4186;SDS011;2107;52.306;10.484;2023-01-01T00:06:21;0.30;;;0.30;;
4186;SDS011;2107;52.306;10.484;2023-01-01T00:08:48;0.30;;;0.30;;
4186;SDS011;2107;52.306;10.484;2023-01-01T00:11:36;0.40;;;0.40;;
4186;SDS011;2107;52.306;10.484;2023-01-01T00:14:04;0.40;;;0.40;;
4186;SDS011;2107;52.306;10.484;2023-01-01T00:16:31;0.30;;;0.30;;
4186;SDS011;2107;52.306;10.484;2023-01-01T00:18:57;0.30;;;0.30;;
4186;SDS011;2107;52.306;10.484;2023-01-01T00:21:24;0.30;;;0.30;;
4186;SDS011;2107;52.306;10.484;2023-01-01T00:23:52;0.40;;;0.40;;
4186;SDS011;2107;52.306;10.484;2023-01-01T00:26:20;0.30;;;0.30;;
4186;SDS011;2107;52.306;10.484;2023-01-01T00:28:47;0.40;;;0.40;;
4186;SDS011;2107;52.306;10.484;2023-01-01T00:31:16;0.40;;;0.40;;
4186;SDS011;2107;52.306;10.484;2023-01-01T00:33:45;0.40;;;0.40;;
4186;SDS011;2107;52.306;10.484;2023-01-01T00:36:15;0.30;;;0.30;;
4186;SDS011;2107;52.306;10.484;2023-01-01T00:38:43;0.40;;;0.40;;
4186;SDS011;2107;52.306;10.484;2023-01-01T00:41:11;0.30;;;0.30;;
4186;SDS011;2107;52.306;10.484;2023-01-01T00:43:39;0.30;;;0.30;;
4186;SDS011;2107;52.306;10.484;2023-01-01T00:46:06;0.40;;;0.40;;
4186;SDS011;2107;52.306;10.484;2023-01-01T00:48:35;0.40;;;0.40;;
4186;SDS011;2107;52.306;10.484;2023-01-01T00:51:03;0.30;;;0.30;;
4186;SDS011;2107;52.306;10.484;2023-01-01T00:53:30;0.40;;;0.40;;
4186;SDS011;2107;52.306;10.484;2023-01-01T00:55:57;0.30;;;0.30;;
4186;SDS011;2107;52.306;10.484;2023-01-01T00:58:24;0.30;;;0.30;;
4186;SDS011;2107;52.306;10.484;2023-01-01T01:00:51;0.33;;;0.33;;
4186;SDS011;2107;52.306;10.484;2023-01-01T01:03:19;0.30;;;0.30;;
4186;SDS011;2107;52.306;10.484;2023-01-01T01:05:55;0.30;;;0.30;;
4186;SDS011;2107;52.306;10.484;2023-01-01T01:08:22;0.30;;;0.30;;
4186;SDS011;2107;52.306;10.484;2023-01-01T01:10:49;0.30;;;0.30;;
4186;SDS011;2107;52.306;10.484;2023-01-01T01:13:16;0.30;;;0.30;;
4186;SDS011;2107;52.306;10.484;2023-01-01T01:15:43;0.30;;;0.30;;
4186;SDS011;2107;52.306;10.484;2023-01-01T01:18:10;0.30;;;0.30;;
4186;SDS011;2107;52.306;10.484;2023-01-01T01:20:37;0.30;;;0.30;;
4186;SDS011;2107;52.306;10.484;2023-01-01T01:23:05;0.40;;;0.40;;
4186;SDS011;2107;52.306;10.484;2023-01-01T01:25:32;0.30;;;0.30;;
4186;SDS011;2107;52.306;10.484;2023-01-01T01:27:59;0.30;;;0.30;;
4186;SDS011;2107;52.306;10.484;2023-01-01T01:30:26;0.40;;;0.40;;
4186;SDS011;2107;52.306;10.484;2023-01-01T01:32:54;0.40;;;0.40;;
4186;SDS011;2107;52.306;10.484;2023-01-01T01:35:21;0.30;;;0.30;;
4186;SDS011;2107;52.306;10.484;2023-01-01T01:37:48;0.30;;;0.30;;
4186;SDS011;2107;52.306;10.484;2023-01-01T01:40:16;0.33;;;0.33;;
4186;SDS011;2107;52.306;10.484;2023-01-01T01:42:46;0.33;;;0.33;;
4186;SDS011;2107;52.306;10.484;2023-01-01T01:45:14;0.40;;;0.40;;
4186;SDS011;2107;52.306;10.484;2023-01-01T01:47:44;0.30;;;0.30;;
4186;SDS011;2107;52.306;10.484;2023-01-01T01:50:15;0.40;;;0.40;;
4186;SDS011;2107;52.306;10.484;2023-01-01T01:52:52;0.40;;;0.40;;
4186;SDS011;2107;52.306;10.484;2023-01-01T01:55:31;0.40;;;0.40;;
4186;SDS011;2107;52.306;10.484;2023-01-01T01:58:01;0.40;;;0.40;;
4186;SDS011;2107;52.306;10.484;2023-01-01T02:00:29;0.40;;;0.40;;
4186;SDS011;2107;52.306;10.484;2023-01-01T02:02:57;0.40;;;0.40;;
4186;SDS011;2107;52.306;10.484;2023-01-01T02:05:28;0.43;;;0.43;;
4186;SDS011;2107;52.306;10.484;2023-01-01T02:07:55;0.50;;;0.50;;
4186;SDS011;2107;52.306;10.484;2023-01-01T02:10:23;0.50;;;0.50;;
4186;SDS011;2107;52.306;10.484;2023-01-01T02:12:54;0.40;;;0.40;;
4186;SDS011;2107;52.306;10.484;2023-01-01T02:15:21;0.40;;;0.40;;
4186;SDS011;2107;52.306;10.484;2023-01-01T02:17:53;0.40;;;0.40;;
4186;SDS011;2107;52.306;10.484;2023-01-01T02:20:33;0.50;;;0.50;;
4186;SDS011;2107;52.306;10.484;2023-01-01T02:23:14;0.60;;;0.60;;
4186;SDS011;2107;52.306;10.484;2023-01-01T02:26:03;0.50;;;0.50;;
4186;SDS011;2107;52.306;10.484;2023-01-01T02:29:04;0.50;;;0.50;;
4186;SDS011;2107;52.306;10.484;2023-01-01T02:31:36;0.50;;;0.50;;
4186;SDS011;2107;52.306;10.484;2023-01-01T02:34:09;0.53;;;0.53;;
4186;SDS011;2107;52.306;10.484;2023-01-01T02:36:40;0.60;;;0.60;;
4186;SDS011;2107;52.306;10.484;2023-01-01T02:39:12;0.60;;;0.60;;
4186;SDS011;2107;52.306;10.484;2023-01-01T02:41:40;0.50;;;0.50;;
4186;SDS011;2107;52.306;10.484;2023-01-01T02:44:11;0.50;;;0.50;;
4186;SDS011;2107;52.306;10.484;2023-01-01T02:46:38;0.50;;;0.50;;
4186;SDS011;2107;52.306;10.484;2023-01-01T02:49:05;0.50;;;0.50;;
4186;SDS011;2107;52.306;10.484;2023-01-01T02:51:34;0.60;;;0.60;;
4186;SDS011;2107;52.306;10.484;2023-01-01T02:54:11;0.50;;;0.50;;
4186;SDS011;2107;52.306;10.484;2023-01-01T02:56:47;0.60;;;0.60;;
4186;SDS011;2107;52.306;10.484;2023-01-01T02:59:20;0.60;;;0.60;;
4186;SDS011;2107;52.306;10.484;2023-01-01T03:02:24;0.50;;;0.50;;
4186;SDS011;2107;52.306;10.484;2023-01-01T03:05:00;0.40;;;0.40;;
4186;SDS011;2107;52.306;10.484;2023-01-01T03:07:33;0.50;;;0.50;;
4186;SDS011;2107;52.306;10.484;2023-01-01T03:10:06;0.50;;;0.50;;
4186;SDS011;2107;52.306;10.484;2023-01-01T03:12:41;0.50;;;0.50;;
4186;SDS011;2107;52.306;10.484;2023-01-01T03:15:17;0.50;;;0.50;;
4186;SDS011;2107;52.306;10.484;2023-01-01T03:17:49;0.50;;;0.50;;
4186;SDS011;2107;52.306;10.484;2023-01-01T03:20:26;0.50;;;0.50;;
4186;SDS011;2107;52.306;10.484;2023-01-01T03:22:57;0.60;;;0.60;;
4186;SDS011;2107;52.306;10.484;2023-01-01T03:25:32;0.40;;;0.40;;
4186;SDS011;2107;52.306;10.484;2023-01-01T03:28:03;0.53;;;0.53;;
4186;SDS011;2107;52.306;10.484;2023-01-01T03:30:36;0.50;;;0.50;;
4186;SDS011;2107;52.306;10.484;2023-01-01T03:33:06;0.50;;;0.50;;
4186;SDS011;2107;52.306;10.484;2023-01-01T03:35:39;0.50;;;0.50;;
4186;SDS011;2107;52.306;10.484;2023-01-01T03:38:09;0.60;;;0.60;;
4186;SDS011;2107;52.306;10.484;2023-01-01T03:40:41;0.50;;;0.50;;
4186;SDS011;2107;52.306;10.484;2023-01-01T03:43:11;0.50;;;0.50;;
4186;SDS011;2107;52.306;10.484;2023-01-01T03:45:42;0.40;;;0.40;;
4186;SDS011;2107;52.306;10.484;2023-01-01T03:48:12;0.50;;;0.50;;
4186;SDS011;2107;52.306;10.484;2023-01-01T03:50:42;0.50;;;0.50;;
4186;SDS011;2107;52.306;10.484;2023-01-01T03:53:18;0.60;;;0.60;;
4186;SDS011;2107;52.306;10.484;2023-01-01T03:55:54;0.50;;;0.50;;
4186;SDS011;2107;52.306;10.484;2023-01-01T03:58:30;0.60;;;0.60;;
4186;SDS011;2107;52.306;10.484;2023-01-01T04:01:06;0.60;;;0.60;;
4186;SDS011;2107;52.306;10.484;2023-01-01T04:03:37;0.60;;;0.60;;
4186;SDS011;2107;52.306;10.484;2023-01-01T04:06:05;0.60;;;0.60;;
4186;SDS011;2107;52.306;10.484;2023-01-01T04:08:34;0.60;;;0.60;;
4186;SDS011;2107;52.306;10.484;2023-01-01T04:11:02;0.60;;;0.60;;
4186;SDS011;2107;52.306;10.484;2023-01-01T04:13:53;0.43;;;0.43;;
4186;SDS011;2107;52.306;10.484;2023-01-01T04:16:21;0.50;;;0.50;;
4186;SDS011;2107;52.306;10.484;2023-01-01T04:18:48;0.50;;;0.50;;
4186;SDS011;2107;52.306;10.484;2023-01-01T04:21:15;0.50;;;0.50;;
4186;SDS011;2107;52.306;10.484;2023-01-01T04:23:41;0.60;;;0.60;;
4186;SDS011;2107;52.306;10.484;2023-01-01T04:26:10;0.50;;;0.50;;
4186;SDS011;2107;52.306;10.484;2023-01-01T04:28:39;0.50;;;0.50;;
4186;SDS011;2107;52.306;10.484;2023-01-01T04:31:06;0.50;;;0.50;;
4186;SDS011;2107;52.306;10.484;2023-01-01T04:33:35;0.60;;;0.60;;
4186;SDS011;2107;52.306;10.484;2023-01-01T04:36:02;0.60;;;0.60;;
4186;SDS011;2107;52.306;10.484;2023-01-01T04:38:31;0.60;;;0.60;;
4186;SDS011;2107;52.306;10.484;2023-01-01T04:40:59;0.60;;;0.60;;
4186;SDS011;2107;52.306;10.484;2023-01-01T04:43:27;0.53;;;0.53;;
4186;SDS011;2107;52.306;10.484;2023-01-01T04:45:54;0.60;;;0.60;;
4186;SDS011;2107;52.306;10.484;2023-01-01T04:48:22;0.67;;;0.67;;
4186;SDS011;2107;52.306;10.484;2023-01-01T04:50:57;0.60;;;0.60;;
4186;SDS011;2107;52.306;10.484;2023-01-01T04:53:25;0.60;;;0.60;;
4186;SDS011;2107;52.306;10.484;2023-01-01T04:55:55;0.50;;;0.50;;
4186;SDS011;2107;52.306;10.484;2023-01-01T04:58:27;0.43;;;0.43;;
4186;SDS011;2107;52.306;10.484;2023-01-01T05:00:54;0.60;;;0.60;;
4186;SDS011;2107;52.306;10.484;2023-01-01T05:03:21;0.50;;;0.50;;
4186;SDS011;2107;52.306;10.484;2023-01-01T05:05:50;0.40;;;0.40;;
4186;SDS011;2107;52.306;10.484;2023-01-01T05:08:27;0.40;;;0.40;;
4186;SDS011;2107;52.306;10.484;2023-01-01T05:10:58;0.40;;;0.40;;
4186;SDS011;2107;52.306;10.484;2023-01-01T05:13:25;0.40;;;0.40;;
4186;SDS011;2107;52.306;10.484;2023-01-01T05:15:52;0.50;;;0.50;;
4186;SDS011;2107;52.306;10.484;2023-01-01T05:18:19;0.50;;;0.50;;
4186;SDS011;2107;52.306;10.484;2023-01-01T05:20:46;0.40;;;0.40;;
4186;SDS011;2107;52.306;10.484;2023-01-01T05:23:15;0.50;;;0.50;;
4186;SDS011;2107;52.306;10.484;2023-01-01T05:25:42;0.50;;;0.50;;
4186;SDS011;2107;52.306;10.484;2023-01-01T05:28:09;0.50;;;0.50;;
4186;SDS011;2107;52.306;10.484;2023-01-01T05:30:37;0.50;;;0.50;;
4186;SDS011;2107;52.306;10.484;2023-01-01T05:33:05;0.50;;;0.50;;
4186;SDS011;2107;52.306;10.484;2023-01-01T05:35:32;0.50;;;0.50;;
4186;SDS011;2107;52.306;10.484;2023-01-01T05:37:58;0.53;;;0.53;;
4186;SDS011;2107;52.306;10.484;2023-01-01T05:40:27;0.50;;;0.50;;
4186;SDS011;2107;52.306;10.484;2023-01-01T05:42:53;0.40;;;0.40;;
4186;SDS011;2107;52.306;10.484;2023-01-01T05:45:20;0.50;;;0.50;;
4186;SDS011;2107;52.306;10.484;2023-01-01T05:47:47;0.50;;;0.50;;
4186;SDS011;2107;52.306;10.484;2023-01-01T05:50:14;0.43;;;0.43;;
4186;SDS011;2107;52.306;10.484;2023-01-01T05:52:41;0.50;;;0.50;;
4186;SDS011;2107;52.306;10.484;2023-01-01T05:55:08;0.50;;;0.50;;
4186;SDS011;2107;52.306;10.484;2023-01-01T05:57:36;0.60;;;0.60;;
4186;SDS011;2107;52.306;10.484;2023-01-01T06:00:03;0.60;;;0.60;;
4186;SDS011;2107;52.306;10.484;2023-01-01T06:02:31;0.50;;;0.50;;
4186;SDS011;2107;52.306;10.484;2023-01-01T06:04:58;0.50;;;0.50;;
4186;SDS011;2107;52.306;10.484;2023-01-01T06:07:25;0.50;;;0.50;;
4186;SDS011;2107;52.306;10.484;2023-01-01T06:09:51;0.40;;;0.40;;
4186;SDS011;2107;52.306;10.484;2023-01-01T06:12:18;0.40;;;0.40;;
4186;SDS011;2107;52.306;10.484;2023-01-01T06:14:46;0.50;;;0.50;;
4186;SDS011;2107;52.306;10.484;2023-01-01T06:17:13;0.50;;;0.50;;
4186;SDS011;2107;52.306;10.484;2023-01-01T06:19:40;0.40;;;0.40;;
4186;SDS011;2107;52.306;10.484;2023-01-01T06:22:07;0.40;;;0.40;;
4186;SDS011;2107;52.306;10.484;2023-01-01T06:24:34;0.40;;;0.40;;
4186;SDS011;2107;52.306;10.484;2023-01-01T06:27:00;0.40;;;0.40;;
4186;SDS011;2107;52.306;10.484;2023-01-01T06:29:27;0.40;;;0.40;;
4186;SDS011;2107;52.306;10.484;2023-01-01T06:31:56;0.50;;;0.50;;
4186;SDS011;2107;52.306;10.484;2023-01-01T06:34:22;0.50;;;0.50;;
4186;SDS011;2107;52.306;10.484;2023-01-01T06:36:49;0.40;;;0.40;;
4186;SDS011;2107;52.306;10.484;2023-01-01T06:39:16;0.47;;;0.47;;
4186;SDS011;2107;52.306;10.484;2023-01-01T06:41:43;0.50;;;0.50;;
4186;SDS011;2107;52.306;10.484;2023-01-01T06:44:10;0.43;;;0.43;;
4186;SDS011;2107;52.306;10.484;2023-01-01T06:46:36;0.50;;;0.50;;
4186;SDS011;2107;52.306;10.484;2023-01-01T06:49:06;0.43;;;0.43;;
4186;SDS011;2107;52.306;10.484;2023-01-01T06:51:36;0.50;;;0.50;;
4186;SDS011;2107;52.306;10.484;2023-01-01T06:54:05;0.40;;;0.40;;
4186;SDS011;2107;52.306;10.484;2023-01-01T06:56:32;0.43;;;0.43;;
4186;SDS011;2107;52.306;10.484;2023-01-01T06:59:00;0.50;;;0.50;;
4186;SDS011;2107;52.306;10.484;2023-01-01T07:01:27;0.50;;;0.50;;
4186;SDS011;2107;52.306;10.484;2023-01-01T07:03:56;0.50;;;0.50;;
4186;SDS011;2107;52.306;10.484;2023-01-01T07:06:25;0.50;;;0.50;;
4186;SDS011;2107;52.306;10.484;2023-01-01T07:08:53;0.50;;;0.50;;
4186;SDS011;2107;52.306;10.484;2023-01-01T07:11:20;0.50;;;0.50;;
4186;SDS011;2107;52.306;10.484;2023-01-01T07:13:48;0.60;;;0.60;;
4186;SDS011;2107;52.306;10.484;2023-01-01T07:16:14;0.50;;;0.50;;
4186;SDS011;2107;52.306;10.484;2023-01-01T07:18:41;0.50;;;0.50;;
4186;SDS011;2107;52.306;10.484;2023-01-01T07:21:20;0.50;;;0.50;;
4186;SDS011;2107;52.306;10.484;2023-01-01T07:23:52;0.57;;;0.57;;
4186;SDS011;2107;52.306;10.484;2023-01-01T07:26:21;0.50;;;0.50;;
4186;SDS011;2107;52.306;10.484;2023-01-01T07:28:48;0.50;;;0.50;;
4186;SDS011;2107;52.306;10.484;2023-01-01T07:31:15;0.50;;;0.50;;
4186;SDS011;2107;52.306;10.484;2023-01-01T07:33:42;0.50;;;0.50;;
4186;SDS011;2107;52.306;10.484;2023-01-01T07:36:08;0.40;;;0.40;;
4186;SDS011;2107;52.306;10.484;2023-01-01T07:38:37;0.40;;;0.40;;
4186;SDS011;2107;52.306;10.484;2023-01-01T07:41:04;0.50;;;0.50;;
4186;SDS011;2107;52.306;10.484;2023-01-01T07:43:31;0.50;;;0.50;;
4186;SDS011;2107;52.306;10.484;2023-01-01T07:45:58;0.40;;;0.40;;
4186;SDS011;2107;52.306;10.484;2023-01-01T07:48:25;0.40;;;0.40;;
4186;SDS011;2107;52.306;10.484;2023-01-01T07:50:52;0.30;;;0.30;;
4186;SDS011;2107;52.306;10.484;2023-01-01T07:53:19;0.50;;;0.50;;
4186;SDS011;2107;52.306;10.484;2023-01-01T07:55:47;0.47;;;0.47;;
4186;SDS011;2107;52.306;10.484;2023-01-01T07:58:14;0.40;;;0.40;;
4186;SDS011;2107;52.306;10.484;2023-01-01T08:00:43;0.50;;;0.50;;
4186;SDS011;2107;52.306;10.484;2023-01-01T08:03:11;0.50;;;0.50;;
4186;SDS011;2107;52.306;10.484;2023-01-01T08:05:37;0.50;;;0.50;;
4186;SDS011;2107;52.306;10.484;2023-01-01T08:08:04;0.30;;;0.30;;
4186;SDS011;2107;52.306;10.484;2023-01-01T08:10:31;0.40;;;0.40;;
4186;SDS011;2107;52.306;10.484;2023-01-01T08:13:00;0.40;;;0.40;;
4186;SDS011;2107;52.306;10.484;2023-01-01T08:15:27;0.30;;;0.30;;
4186;SDS011;2107;52.306;10.484;2023-01-01T08:17:54;0.30;;;0.30;;
4186;SDS011;2107;52.306;10.484;2023-01-01T08:20:22;0.30;;;0.30;;
4186;SDS011;2107;52.306;10.484;2023-01-01T08:22:49;0.30;;;0.30;;
4186;SDS011;2107;52.306;10.484;2023-01-01T08:25:16;0.40;;;0.40;;
4186;SDS011;2107;52.306;10.484;2023-01-01T08:27:43;0.33;;;0.33;;
4186;SDS011;2107;52.306;10.484;2023-01-01T08:30:12;0.30;;;0.30;;
4186;SDS011;2107;52.306;10.484;2023-01-01T08:32:40;0.40;;;0.40;;
4186;SDS011;2107;52.306;10.484;2023-01-01T08:35:07;0.40;;;0.40;;
4186;SDS011;2107;52.306;10.484;2023-01-01T08:37:34;0.30;;;0.30;;
4186;SDS011;2107;52.306;10.484;2023-01-01T08:40:01;0.30;;;0.30;;
4186;SDS011;2107;52.306;10.484;2023-01-01T08:42:28;0.30;;;0.30;;
4186;SDS011;2107;52.306;10.484;2023-01-01T08:44:55;0.40;;;0.40;;
4186;SDS011;2107;52.306;10.484;2023-01-01T08:47:25;0.30;;;0.30;;
4186;SDS011;2107;52.306;10.484;2023-01-01T08:49:52;0.40;;;0.40;;
4186;SDS011;2107;52.306;10.484;2023-01-01T08:52:18;0.40;;;0.40;;
4186;SDS011;2107;52.306;10.484;2023-01-01T08:54:46;0.40;;;0.40;;
4186;SDS011;2107;52.306;10.484;2023-01-01T08:57:13;0.40;;;0.40;;
4186;SDS011;2107;52.306;10.484;2023-01-01T08:59:40;0.30;;;0.30;;
4186;SDS011;2107;52.306;10.484;2023-01-01T09:02:07;0.30;;;0.30;;
4186;SDS011;2107;52.306;10.484;2023-01-01T09:04:36;0.30;;;0.30;;
4186;SDS011;2107;52.306;10.484;2023-01-01T09:07:02;0.40;;;0.40;;
4186;SDS011;2107;52.306;10.484;2023-01-01T09:09:29;0.40;;;0.40;;
4186;SDS011;2107;52.306;10.484;2023-01-01T09:11:56;0.40;;;0.40;;
4186;SDS011;2107;52.306;10.484;2023-01-01T09:14:29;0.40;;;0.40;;
4186;SDS011;2107;52.306;10.484;2023-01-01T09:16:59;0.40;;;0.40;;
4186;SDS011;2107;52.306;10.484;2023-01-01T09:19:38;0.50;;;0.50;;
4186;SDS011;2107;52.306;10.484;2023-01-01T09:22:07;0.40;;;0.40;;
4186;SDS011;2107;52.306;10.484;2023-01-01T09:24:35;0.40;;;0.40;;
4186;SDS011;2107;52.306;10.484;2023-01-01T09:27:05;0.40;;;0.40;;
4186;SDS011;2107;52.306;10.484;2023-01-01T09:29:50;0.50;;;0.50;;
4186;SDS011;2107;52.306;10.484;2023-01-01T09:32:17;0.50;;;0.50;;
4186;SDS011;2107;52.306;10.484;2023-01-01T09:34:57;0.40;;;0.40;;
4186;SDS011;2107;52.306;10.484;2023-01-01T09:37:27;0.40;;;0.40;;
4186;SDS011;2107;52.306;10.484;2023-01-01T09:40:01;0.37;;;0.37;;
4186;SDS011;2107;52.306;10.484;2023-01-01T09:42:34;0.30;;;0.30;;
4186;SDS011;2107;52.306;10.484;2023-01-01T09:45:10;0.40;;;0.40;;
4186;SDS011;2107;52.306;10.484;2023-01-01T09:47:48;0.40;;;0.40;;
4186;SDS011;2107;52.306;10.484;2023-01-01T09:50:24;0.40;;;0.40;;
4186;SDS011;2107;52.306;10.484;2023-01-01T09:52:55;0.30;;;0.30;;
4186;SDS011;2107;52.306;10.484;2023-01-01T09:55:27;0.40;;;0.40;;
4186;SDS011;2107;52.306;10.484;2023-01-01T09:58:06;0.40;;;0.40;;
4186;SDS011;2107;52.306;10.484;2023-01-01T10:00:37;0.30;;;0.30;;
4186;SDS011;2107;52.306;10.484;2023-01-01T10:03:16;0.40;;;0.40;;
4186;SDS011;2107;52.306;10.484;2023-01-01T10:05:58;0.40;;;0.40;;
4186;SDS011;2107;52.306;10.484;2023-01-01T10:08:33;0.50;;;0.50;;
4186;SDS011;2107;52.306;10.484;2023-01-01T10:11:12;0.40;;;0.40;;
4186;SDS011;2107;52.306;10.484;2023-01-01T10:16:38;0.30;;;0.30;;
4186;SDS011;2107;52.306;10.484;2023-01-01T10:19:19;0.33;;;0.33;;
4186;SDS011;2107;52.306;10.484;2023-01-01T10:21:53;0.40;;;0.40;;
4186;SDS011;2107;52.306;10.484;2023-01-01T10:24:29;0.30;;;0.30;;
4186;SDS011;2107;52.306;10.484;2023-01-01T10:27:01;0.30;;;0.30;;
4186;SDS011;2107;52.306;10.484;2023-01-01T10:29:31;0.37;;;0.37;;
4186;SDS011;2107;52.306;10.484;2023-01-01T10:32:05;0.30;;;0.30;;
4186;SDS011;2107;52.306;10.484;2023-01-01T10:34:43;0.30;;;0.30;;
4186;SDS011;2107;52.306;10.484;2023-01-01T10:37:11;0.30;;;0.30;;
4186;SDS011;2107;52.306;10.484;2023-01-01T10:39:40;0.30;;;0.30;;
4186;SDS011;2107;52.306;10.484;2023-01-01T10:42:08;0.30;;;0.30;;
4186;SDS011;2107;52.306;10.484;2023-01-01T10:44:37;0.30;;;0.30;;
4186;SDS011;2107;52.306;10.484;2023-01-01T10:47:09;0.30;;;0.30;;
4186;SDS011;2107;52.306;10.484;2023-01-01T10:49:52;0.30;;;0.30;;
4186;SDS011;2107;52.306;10.484;2023-01-01T10:52:24;0.40;;;0.40;;
4186;SDS011;2107;52.306;10.484;2023-01-01T10:54:54;0.30;;;0.30;;
4186;SDS011;2107;52.306;10.484;2023-01-01T10:57:27;0.30;;;0.30;;
4186;SDS011;2107;52.306;10.484;2023-01-01T11:00:08;0.20;;;0.20;;
4186;SDS011;2107;52.306;10.484;2023-01-01T11:02:46;0.27;;;0.27;;
4186;SDS011;2107;52.306;10.484;2023-01-01T11:05:15;0.30;;;0.30;;
4186;SDS011;2107;52.306;10.484;2023-01-01T11:07:45;0.30;;;0.30;;
4186;SDS011;2107;52.306;10.484;2023-01-01T11:10:16;0.30;;;0.30;;
4186;SDS011;2107;52.306;10.484;2023-01-01T11:12:45;0.23;;;0.23;;
4186;SDS011;2107;52.306;10.484;2023-01-01T11:15:22;0.20;;;0.20;;
4186;SDS011;2107;52.306;10.484;2023-01-01T11:18:03;0.30;;;0.30;;
4186;SDS011;2107;52.306;10.484;2023-01-01T11:20:31;0.30;;;0.30;;
4186;SDS011;2107;52.306;10.484;2023-01-01T11:23:00;0.30;;;0.30;;
4186;SDS011;2107;52.306;10.484;2023-01-01T11:25:55;0.30;;;0.30;;
4186;SDS011;2107;52.306;10.484;2023-01-01T11:28:23;0.30;;;0.30;;
4186;SDS011;2107;52.306;10.484;2023-01-01T11:30:59;0.20;;;0.20;;
4186;SDS011;2107;52.306;10.484;2023-01-01T11:33:32;0.30;;;0.30;;
4186;SDS011;2107;52.306;10.484;2023-01-01T11:36:03;0.30;;;0.30;;
4186;SDS011;2107;52.306;10.484;2023-01-01T11:38:31;0.30;;;0.30;;
4186;SDS011;2107;52.306;10.484;2023-01-01T11:41:01;0.37;;;0.37;;
4186;SDS011;2107;52.306;10.484;2023-01-01T11:43:30;0.37;;;0.37;;
4186;SDS011;2107;52.306;10.484;2023-01-01T11:46:06;0.30;;;0.30;;
4186;SDS011;2107;52.306;10.484;2023-01-01T11:48:35;0.40;;;0.40;;
4186;SDS011;2107;52.306;10.484;2023-01-01T11:51:08;0.40;;;0.40;;
4186;SDS011;2107;52.306;10.484;2023-01-01T11:53:37;0.40;;;0.40;;
4186;SDS011;2107;52.306;10.484;2023-01-01T11:56:08;0.30;;;0.30;;
4186;SDS011;2107;52.306;10.484;2023-01-01T11:58:42;0.30;;;0.30;;
4186;SDS011;2107;52.306;10.484;2023-01-01T12:01:16;0.40;;;0.40;;
4186;SDS011;2107;52.306;10.484;2023-01-01T12:03:51;0.40;;;0.40;;
4186;SDS011;2107;52.306;10.484;2023-01-01T12:06:23;0.40;;;0.40;;
4186;SDS011;2107;52.306;10.484;2023-01-01T12:08:57;0.40;;;0.40;;
4186;SDS011;2107;52.306;10.484;2023-01-01T12:11:31;0.40;;;0.40;;
4186;SDS011;2107;52.306;10.484;2023-01-01T12:14:03;0.43;;;0.43;;
4186;SDS011;2107;52.306;10.484;2023-01-01T12:16:40;0.37;;;0.37;;
4186;SDS011;2107;52.306;10.484;2023-01-01T12:19:17;0.33;;;0.33;;
4186;SDS011;2107;52.306;10.484;2023-01-01T12:21:48;0.30;;;0.30;;
4186;SDS011;2107;52.306;10.484;2023-01-01T12:24:20;0.40;;;0.40;;
4186;SDS011;2107;52.306;10.484;2023-01-01T12:26:55;0.50;;;0.50;;
4186;SDS011;2107;52.306;10.484;2023-01-01T12:29:38;0.40;;;0.40;;
4186;SDS011;2107;52.306;10.484;2023-01-01T12:32:22;0.50;;;0.50;;
4186;SDS011;2107;52.306;10.484;2023-01-01T12:34:53;0.40;;;0.40;;
4186;SDS011;2107;52.306;10.484;2023-01-01T12:37:29;0.40;;;0.40;;
4186;SDS011;2107;52.306;10.484;2023-01-01T12:43:00;0.50;;;0.50;;
4186;SDS011;2107;52.306;10.484;2023-01-01T12:45:33;0.60;;;0.60;;
4186;SDS011;2107;52.306;10.484;2023-01-01T12:51:12;0.70;;;0.70;;
4186;SDS011;2107;52.306;10.484;2023-01-01T12:53:49;0.60;;;0.60;;
4186;SDS011;2107;52.306;10.484;2023-01-01T12:56:25;0.40;;;0.40;;
4186;SDS011;2107;52.306;10.484;2023-01-01T12:58:55;0.40;;;0.40;;
4186;SDS011;2107;52.306;10.484;2023-01-01T13:01:26;0.40;;;0.40;;
4186;SDS011;2107;52.306;10.484;2023-01-01T13:03:58;0.50;;;0.50;;
4186;SDS011;2107;52.306;10.484;2023-01-01T13:06:27;0.40;;;0.40;;
4186;SDS011;2107;52.306;10.484;2023-01-01T13:08:58;0.40;;;0.40;;
4186;SDS011;2107;52.306;10.484;2023-01-01T13:11:30;0.50;;;0.50;;
4186;SDS011;2107;52.306;10.484;2023-01-01T13:13:59;0.30;;;0.30;;
4186;SDS011;2107;52.306;10.484;2023-01-01T13:16:32;0.30;;;0.30;;
4186;SDS011;2107;52.306;10.484;2023-01-01T13:19:02;0.40;;;0.40;;
4186;SDS011;2107;52.306;10.484;2023-01-01T13:21:30;0.40;;;0.40;;
4186;SDS011;2107;52.306;10.484;2023-01-01T13:23:59;0.50;;;0.50;;
4186;SDS011;2107;52.306;10.484;2023-01-01T13:26:41;0.50;;;0.50;;
4186;SDS011;2107;52.306;10.484;2023-01-01T13:32:09;0.30;;;0.30;;
4186;SDS011;2107;52.306;10.484;2023-01-01T13:37:50;0.60;;;0.60;;
4186;SDS011;2107;52.306;10.484;2023-01-01T13:40:30;0.30;;;0.30;;
4186;SDS011;2107;52.306;10.484;2023-01-01T13:43:19;0.60;;;0.60;;
4186;SDS011;2107;52.306;10.484;2023-01-01T13:45:53;0.50;;;0.50;;
4186;SDS011;2107;52.306;10.484;2023-01-01T13:48:36;0.50;;;0.50;;
4186;SDS011;2107;52.306;10.484;2023-01-01T13:51:37;0.40;;;0.40;;
4186;SDS011;2107;52.306;10.484;2023-01-01T14:00:59;0.60;;;0.60;;
4186;SDS011;2107;52.306;10.484;2023-01-01T14:03:45;0.50;;;0.50;;
4186;SDS011;2107;52.306;10.484;2023-01-01T14:06:15;0.60;;;0.60;;
4186;SDS011;2107;52.306;10.484;2023-01-01T14:08:59;0.60;;;0.60;;
4186;SDS011;2107;52.306;10.484;2023-01-01T14:11:28;0.50;;;0.50;;
4186;SDS011;2107;52.306;10.484;2023-01-01T14:13:55;0.50;;;0.50;;
4186;SDS011;2107;52.306;10.484;2023-01-01T14:16:23;0.50;;;0.50;;
4186;SDS011;2107;52.306;10.484;2023-01-01T14:18:52;0.50;;;0.50;;
4186;SDS011;2107;52.306;10.484;2023-01-01T14:21:23;0.50;;;0.50;;
4186;SDS011;2107;52.306;10.484;2023-01-01T14:23:54;0.60;;;0.60;;
4186;SDS011;2107;52.306;10.484;2023-01-01T14:26:24;0.60;;;0.60;;
4186;SDS011;2107;52.306;10.484;2023-01-01T14:28:54;0.60;;;0.60;;
4186;SDS011;2107;52.306;10.484;2023-01-01T14:31:23;0.50;;;0.50;;
4186;SDS011;2107;52.306;10.484;2023-01-01T14:33:52;0.40;;;0.40;;
4186;SDS011;2107;52.306;10.484;2023-01-01T14:36:20;0.40;;;0.40;;
4186;SDS011;2107;52.306;10.484;2023-01-01T14:38:49;0.40;;;0.40;;
4186;SDS011;2107;52.306;10.484;2023-01-01T14:41:18;0.50;;;0.50;;
4186;SDS011;2107;52.306;10.484;2023-01-01T14:43:49;0.40;;;0.40;;
4186;SDS011;2107;52.306;10.484;2023-01-01T14:46:20;0.30;;;0.30;;
4186;SDS011;2107;52.306;10.484;2023-01-01T14:48:50;0.20;;;0.20;;
4186;SDS011;2107;52.306;10.484;2023-01-01T14:51:21;0.20;;;0.20;;
4186;SDS011;2107;52.306;10.484;2023-01-01T14:53:49;0.20;;;0.20;;
4186;SDS011;2107;52.306;10.484;2023-01-01T14:56:21;0.30;;;0.30;;
4186;SDS011;2107;52.306;10.484;2023-01-01T14:58:50;0.30;;;0.30;;
4186;SDS011;2107;52.306;10.484;2023-01-01T15:01:20;0.30;;;0.30;;
4186;SDS011;2107;52.306;10.484;2023-01-01T15:03:53;0.30;;;0.30;;
4186;SDS011;2107;52.306;10.484;2023-01-01T15:06:22;0.20;;;0.20;;
4186;SDS011;2107;52.306;10.484;2023-01-01T15:08:49;0.20;;;0.20;;
4186;SDS011;2107;52.306;10.484;2023-01-01T15:11:17;0.20;;;0.20;;
4186;SDS011;2107;52.306;10.484;2023-01-01T15:13:54;0.20;;;0.20;;
4186;SDS011;2107;52.306;10.484;2023-01-01T15:16:24;0.20;;;0.20;;
4186;SDS011;2107;52.306;10.484;2023-01-01T15:18:51;0.20;;;0.20;;
4186;SDS011;2107;52.306;10.484;2023-01-01T15:21:34;0.20;;;0.20;;
4186;SDS011;2107;52.306;10.484;2023-01-01T15:24:03;0.20;;;0.20;;
4186;SDS011;2107;52.306;10.484;2023-01-01T15:26:39;0.20;;;0.20;;
4186;SDS011;2107;52.306;10.484;2023-01-01T15:29:08;0.20;;;0.20;;
4186;SDS011;2107;52.306;10.484;2023-01-01T15:31:38;0.20;;;0.20;;
4186;SDS011;2107;52.306;10.484;2023-01-01T15:34:14;0.20;;;0.20;;
4186;SDS011;2107;52.306;10.484;2023-01-01T15:36:46;0.20;;;0.20;;
4186;SDS011;2107;52.306;10.484;2023-01-01T15:39:14;0.13;;;0.13;;
4186;SDS011;2107;52.306;10.484;2023-01-01T15:41:41;0.10;;;0.10;;
4186;SDS011;2107;52.306;10.484;2023-01-01T15:44:20;0.10;;;0.10;;